createdAt,value
2022-12-19T00:01:37.879Z,5.03
2022-12-19T00:04:09.811Z,4.70
2022-12-19T00:06:43.945Z,4.82
2022-12-19T00:09:14.562Z,4.74
2022-12-19T00:11:44.475Z,4.53
2022-12-19T00:14:13.333Z,4.53
2022-12-19T00:16:42.358Z,4.41
2022-12-19T00:19:12.842Z,4.21
2022-12-19T00:21:41.689Z,3.90
2022-12-19T00:24:20.724Z,4.06
2022-12-19T00:26:51.192Z,4.05
2022-12-19T00:29:21.476Z,4.02
2022-12-19T00:31:50.331Z,3.82
2022-12-19T00:34:19.042Z,3.98
2022-12-19T00:36:48.059Z,3.87
2022-12-19T00:39:17.051Z,3.82
2022-12-19T00:41:47.453Z,3.98
2022-12-19T00:44:17.011Z,4.04
2022-12-19T00:46:52.440Z,4.00
2022-12-19T00:49:22.972Z,3.97
2022-12-19T00:51:51.514Z,3.92
2022-12-19T00:54:20.387Z,3.71
2022-12-19T00:56:49.778Z,4.01
2022-12-19T00:59:23.945Z,3.89
2022-12-19T01:01:58.594Z,4.01
2022-12-19T01:04:29.224Z,3.63
2022-12-19T01:07:01.959Z,3.82
2022-12-19T01:09:36.285Z,3.67
2022-12-19T01:12:25.336Z,3.63
2022-12-19T01:15:02.939Z,3.67
2022-12-19T01:17:44.311Z,3.76
2022-12-19T01:20:16.666Z,3.59
2022-12-19T01:22:47.960Z,3.53
2022-12-19T01:25:16.942Z,3.48
2022-12-19T01:27:45.798Z,3.30
2022-12-19T01:30:15.600Z,3.33
2022-12-19T01:32:45.919Z,3.31
2022-12-19T01:35:21.408Z,3.35
2022-12-19T01:38:07.278Z,3.32
2022-12-19T01:40:38.538Z,3.20
2022-12-19T01:43:13.478Z,3.33
2022-12-19T01:45:45.966Z,3.47
2022-12-19T01:48:43.261Z,3.59
2022-12-19T01:51:21.168Z,3.40
2022-12-19T01:53:55.656Z,3.22
2022-12-19T01:56:30.641Z,3.08
2022-12-19T01:59:06.526Z,3.28
2022-12-19T02:01:50.873Z,3.27
2022-12-19T02:04:31.958Z,3.55
2022-12-19T02:07:15.536Z,3.71
2022-12-19T02:09:56.866Z,3.65
2022-12-19T02:12:42.662Z,4.01
2022-12-19T02:15:15.341Z,4.17
2022-12-19T02:17:58.870Z,4.65
2022-12-19T02:21:07.612Z,5.07
2022-12-19T02:24:03.966Z,5.10
2022-12-19T02:26:53.060Z,5.02
2022-12-19T02:29:51.630Z,5.26
2022-12-19T02:33:01.582Z,6.04
2022-12-19T02:35:37.765Z,6.54
2022-12-19T02:38:33.465Z,6.85
2022-12-19T02:41:15.192Z,7.00
2022-12-19T02:43:56.824Z,7.22
2022-12-19T02:46:31.026Z,7.59
2022-12-19T02:49:00.469Z,7.91
2022-12-19T02:51:29.127Z,8.33
2022-12-19T02:53:58.376Z,8.11
2022-12-19T02:56:43.205Z,8.29
2022-12-19T02:59:48.390Z,7.79
2022-12-19T03:02:30.733Z,7.54
2022-12-19T03:05:38.121Z,7.33
2022-12-19T03:08:11.696Z,7.27
2022-12-19T03:10:59.985Z,7.00
2022-12-19T03:13:35.148Z,6.77
2022-12-19T03:16:05.889Z,6.64
2022-12-19T03:18:35.397Z,6.75
2022-12-19T03:21:03.934Z,6.72
2022-12-19T03:23:33.462Z,6.33
2022-12-19T03:26:09.558Z,6.61
2022-12-19T03:29:12.236Z,6.58
2022-12-19T03:31:43.338Z,6.56
2022-12-19T03:34:38.164Z,6.54
2022-12-19T03:37:13.782Z,6.67
2022-12-19T03:39:46.776Z,6.64
2022-12-19T03:42:36.421Z,6.90
2022-12-19T03:45:08.055Z,7.01
2022-12-19T03:47:52.560Z,6.92
2022-12-19T03:50:25.633Z,6.86
2022-12-19T03:53:14.490Z,6.93
2022-12-19T03:55:56.145Z,7.07
2022-12-19T03:58:39.236Z,7.10
2022-12-19T04:01:09.136Z,7.01
2022-12-19T04:03:38.324Z,6.87
2022-12-19T04:06:08.463Z,7.07
2022-12-19T04:08:38.283Z,7.16
2022-12-19T04:11:15.026Z,7.22
2022-12-19T04:14:08.191Z,7.41
2022-12-19T04:17:08.971Z,7.46
2022-12-19T04:19:49.627Z,7.64
2022-12-19T04:22:26.709Z,7.78
2022-12-19T04:24:57.120Z,7.81
2022-12-19T04:27:32.092Z,7.95
2022-12-19T04:30:03.783Z,7.94
2022-12-19T04:32:37.997Z,7.81
2022-12-19T04:35:07.856Z,7.96
2022-12-19T04:37:36.770Z,7.91
2022-12-19T04:40:07.421Z,8.33
2022-12-19T04:42:36.690Z,8.38
2022-12-19T04:45:07.031Z,8.28
2022-12-19T04:47:36.683Z,8.14
2022-12-19T04:50:06.740Z,8.45
2022-12-19T04:52:36.213Z,8.50
2022-12-19T04:55:05.149Z,8.54
2022-12-19T04:57:34.380Z,8.80
2022-12-19T05:00:04.879Z,9.44
2022-12-19T05:02:34.277Z,9.87
2022-12-19T05:05:03.557Z,10.01
2022-12-19T05:07:32.935Z,10.24
2022-12-19T05:10:01.671Z,10.26
2022-12-19T05:12:31.407Z,10.79
2022-12-19T05:15:00.143Z,11.30
2022-12-19T05:17:28.996Z,11.38
2022-12-19T05:19:57.594Z,11.73
2022-12-19T05:22:30.201Z,11.84
2022-12-19T05:24:59.397Z,12.28
2022-12-19T05:27:31.704Z,12.66
2022-12-19T05:30:00.685Z,12.97
2022-12-19T05:32:33.350Z,13.40
2022-12-19T05:35:02.436Z,13.30
2022-12-19T05:37:31.124Z,13.40
2022-12-19T05:39:59.973Z,13.20
2022-12-19T05:42:28.697Z,12.98
2022-12-19T05:44:57.835Z,12.65
2022-12-19T05:47:26.488Z,12.03
2022-12-19T05:49:55.464Z,12.86
2022-12-19T05:52:25.548Z,12.77
2022-12-19T05:54:54.452Z,12.38
2022-12-19T05:57:23.783Z,12.26
2022-12-19T05:59:53.101Z,12.08
2022-12-19T06:02:22.486Z,11.89
2022-12-19T06:04:51.488Z,11.79
2022-12-19T06:07:21.263Z,11.75
2022-12-19T06:09:51.205Z,11.68
2022-12-19T06:12:20.257Z,11.72
2022-12-19T06:14:49.126Z,11.75
2022-12-19T06:17:20.791Z,11.74
2022-12-19T06:19:50.370Z,11.82
2022-12-19T06:22:19.385Z,11.98
2022-12-19T06:24:48.895Z,12.29
2022-12-19T06:27:17.738Z,12.72
2022-12-19T06:29:47.558Z,13.27
2022-12-19T06:32:16.470Z,14.06
2022-12-19T06:35:03.609Z,14.70
2022-12-19T06:37:33.102Z,15.65
2022-12-19T06:40:01.926Z,16.01
2022-12-19T06:42:31.982Z,16.65
2022-12-19T06:45:01.003Z,17.37
2022-12-19T06:47:29.796Z,17.38
2022-12-19T06:49:58.479Z,17.89
2022-12-19T06:52:27.392Z,17.77
2022-12-19T06:54:56.908Z,17.05
2022-12-19T06:57:26.021Z,17.95
2022-12-19T06:59:55.624Z,17.73
2022-12-19T07:02:31.176Z,18.72
2022-12-19T07:05:05.202Z,18.70
2022-12-19T07:07:34.743Z,19.00
2022-12-19T07:10:04.780Z,19.16
2022-12-19T07:12:34.942Z,17.42
2022-12-19T07:15:03.878Z,16.63
2022-12-19T07:17:32.758Z,18.07
2022-12-19T07:20:05.244Z,18.92
2022-12-19T07:22:37.500Z,17.81
2022-12-19T07:25:07.478Z,18.39
2022-12-19T07:27:36.863Z,19.18
2022-12-19T07:30:09.451Z,19.34
2022-12-19T07:32:38.200Z,20.04
2022-12-19T07:35:08.508Z,19.54
2022-12-19T07:37:38.149Z,19.38
2022-12-19T07:40:07.610Z,19.17
2022-12-19T07:42:36.533Z,19.07
2022-12-19T07:45:05.316Z,19.37
2022-12-19T07:47:34.939Z,19.02
2022-12-19T07:50:03.917Z,19.26
2022-12-19T07:52:33.570Z,19.42
2022-12-19T07:55:02.869Z,18.98
2022-12-19T07:57:31.922Z,19.48
2022-12-19T08:00:00.598Z,18.41
2022-12-19T08:02:29.965Z,19.17
2022-12-19T08:04:59.669Z,19.53
2022-12-19T08:07:29.224Z,18.38
2022-12-19T08:09:57.893Z,18.70
2022-12-19T08:12:27.900Z,19.00
2022-12-19T08:14:57.460Z,19.28
2022-12-19T08:17:27.172Z,19.10
2022-12-19T08:19:55.985Z,18.73
2022-12-19T08:22:24.902Z,18.70
2022-12-19T08:24:53.898Z,18.76
2022-12-19T08:27:22.764Z,19.32
2022-12-19T08:29:52.105Z,19.21
2022-12-19T08:32:22.024Z,19.05
2022-12-19T08:34:51.785Z,18.75
2022-12-19T08:37:20.743Z,18.34
2022-12-19T08:39:50.978Z,18.41
2022-12-19T08:42:19.709Z,18.74
2022-12-19T08:44:48.861Z,18.39
2022-12-19T08:47:17.661Z,18.34
2022-12-19T08:49:46.630Z,18.46
2022-12-19T08:52:15.302Z,18.75
2022-12-19T08:54:46.597Z,18.68
2022-12-19T08:57:34.906Z,18.17
2022-12-19T09:00:07.221Z,17.91
2022-12-19T09:02:37.219Z,17.66
2022-12-19T09:06:05.461Z,16.97
2022-12-19T09:07:55.383Z,17.43
2022-12-19T09:10:24.028Z,17.67
2022-12-19T09:12:57.699Z,17.14
2022-12-19T09:15:27.157Z,17.44
2022-12-19T09:17:55.817Z,17.08
2022-12-19T09:20:24.740Z,16.97
2022-12-19T09:22:53.624Z,16.73
2022-12-19T09:25:22.417Z,16.24
2022-12-19T09:28:26.514Z,16.44
2022-12-19T09:30:40.404Z,16.45
2022-12-19T09:33:09.026Z,16.01
2022-12-19T09:35:38.357Z,15.69
2022-12-19T09:38:06.879Z,15.87
2022-12-19T09:41:09.313Z,15.77
2022-12-19T09:44:05.083Z,15.90
2022-12-19T09:46:56.538Z,15.97
2022-12-19T09:49:46.916Z,15.05
2022-12-19T09:52:41.991Z,14.25
2022-12-19T09:55:23.701Z,13.97
2022-12-19T09:58:10.686Z,13.71
2022-12-19T10:00:46.436Z,13.80
2022-12-19T10:04:07.070Z,13.94
2022-12-19T10:07:18.626Z,13.64
2022-12-19T10:10:58.079Z,13.51
2022-12-19T10:12:51.412Z,13.81
2022-12-19T10:16:00.323Z,13.48
2022-12-19T10:19:02.964Z,13.46
2022-12-19T10:22:16.244Z,13.53
2022-12-19T10:24:38.081Z,13.70
2022-12-19T10:27:27.345Z,12.88
2022-12-19T10:30:16.980Z,12.97
2022-12-19T10:33:21.031Z,13.02
2022-12-19T10:36:01.624Z,12.90
2022-12-19T10:38:40.265Z,13.05
2022-12-19T10:41:23.149Z,13.23
2022-12-19T10:43:59.958Z,12.99
2022-12-19T10:46:42.850Z,12.66
2022-12-19T10:49:19.781Z,12.29
2022-12-19T10:51:57.530Z,12.13
2022-12-19T10:54:38.525Z,11.90
2022-12-19T10:57:26.083Z,11.32
2022-12-19T11:00:06.591Z,10.68
2022-12-19T11:02:44.495Z,10.24
2022-12-19T11:05:26.161Z,9.90
2022-12-19T11:08:08.674Z,9.42
2022-12-19T11:13:22.957Z,9.19
2022-12-19T11:18:50.141Z,8.84
2022-12-19T11:23:47.269Z,8.27
2022-12-19T11:29:18.089Z,8.33
2022-12-19T11:30:09.729Z,8.14
2022-12-19T11:30:41.630Z,7.69
2022-12-19T11:30:48.176Z,7.92
2022-12-19T11:34:29.713Z,7.11
2022-12-19T11:37:24.973Z,7.08
2022-12-19T11:40:03.310Z,7.05
2022-12-19T11:43:10.869Z,6.96
2022-12-19T11:45:51.055Z,6.64
2022-12-19T11:48:38.696Z,6.67
2022-12-19T11:51:19.588Z,6.56
2022-12-19T11:54:05.955Z,6.43
2022-12-19T11:56:36.156Z,6.13
2022-12-19T11:59:37.049Z,5.84
2022-12-19T12:02:29.999Z,6.06
2022-12-19T12:05:07.999Z,6.04
2022-12-19T12:09:20.782Z,5.98
2022-12-19T12:16:11.670Z,5.52
2022-12-19T12:23:31.069Z,5.83
2022-12-19T12:31:16.284Z,5.70
2022-12-19T12:31:31.888Z,5.63
2022-12-19T12:31:53.069Z,5.68
2022-12-19T12:31:58.469Z,5.61
2022-12-19T12:32:02.268Z,5.66
2022-12-19T12:35:33.432Z,5.50
2022-12-19T12:38:29.920Z,5.54
2022-12-19T12:41:14.098Z,5.33
2022-12-19T12:44:03.097Z,5.29
2022-12-19T12:46:51.184Z,5.36
2022-12-19T12:49:41.898Z,5.35
2022-12-19T12:52:21.113Z,5.16
2022-12-19T12:54:51.624Z,5.18
2022-12-19T12:57:30.138Z,5.14
2022-12-19T13:00:26.889Z,4.56
2022-12-19T13:03:17.717Z,4.88
2022-12-19T13:06:07.310Z,4.83
2022-12-19T13:09:18.104Z,4.79
2022-12-19T13:12:21.719Z,4.51
2022-12-19T13:17:51.277Z,4.35
2022-12-19T13:20:20.263Z,4.16
2022-12-19T13:22:59.355Z,3.98
2022-12-19T13:25:28.237Z,3.86
2022-12-19T13:28:24.432Z,3.52
2022-12-19T13:31:18.674Z,3.52
2022-12-19T13:33:55.843Z,3.36
2022-12-19T13:39:50.026Z,3.21
2022-12-19T13:40:11.147Z,3.08
2022-12-19T13:43:22.684Z,2.90
2022-12-19T13:45:55.904Z,2.83
2022-12-19T13:48:34.542Z,2.71
2022-12-19T13:51:14.465Z,2.83
2022-12-19T13:53:45.316Z,2.78
2022-12-19T13:56:17.212Z,2.74
2022-12-19T13:58:56.754Z,2.71
2022-12-19T14:01:33.202Z,2.39
2022-12-19T14:04:29.727Z,2.48
2022-12-19T14:07:36.912Z,2.47
2022-12-19T14:11:29.738Z,2.44
2022-12-19T14:13:47.550Z,2.06
2022-12-19T14:16:15.381Z,2.24
2022-12-19T14:18:51.083Z,2.07
2022-12-19T14:22:05.677Z,2.16
2022-12-19T14:24:13.669Z,2.12
2022-12-19T14:28:21.003Z,1.81
2022-12-19T14:30:28.572Z,1.97
2022-12-19T14:33:43.989Z,1.67
2022-12-19T14:36:08.398Z,2.10
2022-12-19T14:39:23.113Z,1.95
2022-12-19T14:41:48.335Z,2.21
2022-12-19T14:54:14.692Z,1.89
2022-12-19T14:54:16.317Z,2.00
2022-12-19T14:54:23.671Z,1.93
2022-12-19T14:54:37.413Z,1.96
2022-12-19T14:59:28.412Z,1.88
2022-12-19T15:02:02.951Z,1.92
2022-12-19T15:04:55.004Z,1.97
2022-12-19T15:07:30.721Z,1.92
2022-12-19T15:11:07.925Z,1.62
2022-12-19T15:14:57.536Z,1.68
2022-12-19T15:16:30.818Z,1.84
2022-12-19T15:19:02.979Z,1.72
2022-12-19T15:21:32.721Z,1.39
2022-12-19T15:24:01.304Z,1.62
2022-12-19T15:26:47.652Z,1.37
2022-12-19T15:29:21.829Z,1.57
2022-12-19T15:31:51.264Z,1.42
2022-12-19T15:34:37.949Z,1.44
2022-12-19T15:37:11.012Z,1.31
2022-12-19T15:39:44.504Z,1.25
2022-12-19T15:42:25.784Z,1.19
2022-12-19T15:45:01.319Z,1.24
2022-12-19T15:47:38.844Z,1.34
2022-12-19T15:50:21.725Z,1.39
2022-12-19T15:52:51.447Z,1.17
2022-12-19T15:55:21.601Z,1.18
2022-12-19T15:58:00.543Z,1.07
2022-12-19T16:00:37.983Z,1.57
2022-12-19T16:03:23.298Z,1.61
2022-12-19T16:05:54.380Z,1.92
2022-12-19T16:08:27.126Z,2.09
2022-12-19T16:11:01.774Z,2.02
2022-12-19T16:13:37.252Z,2.14
2022-12-19T16:16:15.015Z,2.19
2022-12-19T16:18:46.649Z,2.30
2022-12-19T16:21:33.754Z,1.99
2022-12-19T16:24:03.874Z,2.15
2022-12-19T16:26:44.912Z,2.21
2022-12-19T16:29:21.024Z,2.20
2022-12-19T16:31:50.484Z,2.17
2022-12-19T16:34:23.406Z,2.23
2022-12-19T16:36:55.157Z,1.89
2022-12-19T16:39:26.932Z,2.22
2022-12-19T16:41:55.809Z,2.14
2022-12-19T16:44:34.466Z,2.19
2022-12-19T16:47:07.424Z,2.11
2022-12-19T16:49:36.629Z,1.98
2022-12-19T16:52:05.483Z,2.04
2022-12-19T16:54:45.211Z,1.99
2022-12-19T16:57:25.945Z,1.79
2022-12-19T16:59:56.377Z,1.86
2022-12-19T17:02:46.522Z,1.91
2022-12-19T17:05:24.763Z,1.84
2022-12-19T17:07:58.865Z,1.70
2022-12-19T17:10:34.974Z,1.56
2022-12-19T17:13:04.627Z,1.54
2022-12-19T17:15:37.468Z,1.43
2022-12-19T17:18:26.730Z,1.50
2022-12-19T17:20:57.248Z,1.28
2022-12-19T17:23:33.566Z,1.57
2022-12-19T17:26:17.466Z,1.41
2022-12-19T17:28:50.492Z,1.34
2022-12-19T17:31:27.052Z,1.29
2022-12-19T17:33:59.669Z,0.92
2022-12-19T17:36:37.629Z,1.18
2022-12-19T17:39:29.779Z,1.32
2022-12-19T17:42:22.112Z,1.41
2022-12-19T17:44:52.129Z,1.20
2022-12-19T17:47:21.920Z,1.36
2022-12-19T17:49:50.933Z,1.23
2022-12-19T17:52:20.966Z,1.48
2022-12-19T17:54:50.731Z,1.61
2022-12-19T17:57:21.061Z,1.34
2022-12-19T17:59:50.008Z,1.24
2022-12-19T18:02:27.799Z,1.19
2022-12-19T18:04:56.721Z,1.01
2022-12-19T18:07:25.509Z,0.98
2022-12-19T18:09:54.573Z,1.18
2022-12-19T18:12:23.206Z,1.02
2022-12-19T18:14:52.314Z,1.12
2022-12-19T18:17:26.097Z,1.05
2022-12-19T18:19:55.352Z,1.04
2022-12-19T18:22:24.262Z,1.02
2022-12-19T18:24:53.862Z,0.98
2022-12-19T18:27:22.672Z,0.83
2022-12-19T18:29:51.692Z,0.50
2022-12-19T18:32:21.697Z,0.76
2022-12-19T18:34:51.265Z,0.48
2022-12-19T18:37:20.007Z,0.67
2022-12-19T18:39:50.060Z,0.64
2022-12-19T18:42:21.595Z,0.81
2022-12-19T18:44:50.664Z,0.70
2022-12-19T18:47:24.528Z,0.79
2022-12-19T18:49:53.729Z,0.72
2022-12-19T18:52:22.309Z,0.36
2022-12-19T18:54:51.065Z,0.38
2022-12-19T18:57:19.895Z,0.39
2022-12-19T18:59:49.389Z,0.46
2022-12-19T19:02:28.879Z,0.48
2022-12-19T19:04:59.825Z,0.56
2022-12-19T19:07:28.967Z,0.57
2022-12-19T19:09:57.661Z,-0.07
2022-12-19T19:12:41.587Z,0.28
2022-12-19T19:15:11.964Z,0.40
2022-12-19T19:17:41.919Z,0.27
2022-12-19T19:20:10.880Z,0.19
2022-12-19T19:22:39.561Z,0.06
2022-12-19T19:25:10.149Z,0.44
2022-12-19T19:27:40.342Z,0.17
2022-12-19T19:30:10.809Z,0.07
2022-12-19T19:32:45.640Z,0.25
2022-12-19T19:35:19.665Z,0.43
2022-12-19T19:37:51.223Z,0.20
2022-12-19T19:40:20.824Z,0.57
2022-12-19T19:42:49.447Z,0.26
2022-12-19T19:45:18.199Z,0.43
2022-12-19T19:47:46.907Z,0.35
2022-12-19T19:50:15.750Z,0.59
2022-12-19T19:52:44.441Z,0.46
2022-12-19T19:55:15.480Z,0.43
2022-12-19T19:57:44.358Z,0.38
2022-12-19T20:00:13.628Z,0.40
2022-12-19T20:02:42.970Z,0.38
2022-12-19T20:05:12.000Z,0.09
2022-12-19T20:07:40.841Z,0.39
2022-12-19T20:10:10.999Z,0.30
2022-12-19T20:12:40.048Z,0.35
2022-12-19T20:15:09.331Z,0.36
2022-12-19T20:17:38.130Z,0.05
2022-12-19T20:20:08.738Z,0.21
2022-12-19T20:22:37.711Z,0.28
2022-12-19T20:25:06.535Z,0.44
2022-12-19T20:27:35.395Z,0.49
2022-12-19T20:30:05.318Z,0.28
2022-12-19T20:32:34.549Z,0.47
2022-12-19T20:35:03.607Z,0.62
2022-12-19T20:37:33.940Z,0.61
2022-12-19T20:40:02.643Z,0.65
2022-12-19T20:42:31.429Z,0.58
2022-12-19T20:45:00.042Z,0.61
2022-12-19T20:47:29.870Z,0.61
2022-12-19T20:49:58.460Z,0.59
2022-12-19T20:52:27.304Z,0.57
2022-12-19T20:54:55.938Z,0.41
2022-12-19T20:57:24.692Z,0.34
2022-12-19T20:59:53.296Z,0.27
2022-12-19T21:02:22.269Z,0.31
2022-12-19T21:04:51.143Z,0.26
2022-12-19T21:07:19.944Z,0.30
2022-12-19T21:09:51.030Z,0.07
2022-12-19T21:12:19.795Z,0.54
2022-12-19T21:14:48.886Z,0.63
2022-12-19T21:17:17.746Z,0.60
2022-12-19T21:19:46.759Z,0.48
2022-12-19T21:22:15.587Z,0.39
2022-12-19T21:24:44.193Z,0.16
2022-12-19T21:27:12.964Z,0.25
2022-12-19T21:29:41.530Z,0.33
2022-12-19T21:32:16.818Z,0.04
2022-12-19T21:34:47.555Z,0.19
2022-12-19T21:37:16.382Z,0.34
2022-12-19T21:39:45.365Z,0.35
2022-12-19T21:42:14.031Z,0.40
2022-12-19T21:44:42.831Z,-0.03
2022-12-19T21:47:11.460Z,0.35
2022-12-19T21:49:40.748Z,0.20
2022-12-19T21:52:09.715Z,0.45
2022-12-19T21:54:38.587Z,0.22
2022-12-19T21:57:07.157Z,0.06
2022-12-19T21:59:36.003Z,-0.01
2022-12-19T22:02:04.709Z,-0.12
2022-12-19T22:04:33.517Z,-0.84
2022-12-19T22:07:06.239Z,-0.10
2022-12-19T22:09:35.454Z,0.03
2022-12-19T22:12:04.082Z,-0.14
2022-12-19T22:14:32.957Z,-0.01
2022-12-19T22:17:01.575Z,-0.06
2022-12-19T22:19:30.483Z,0.12
2022-12-19T22:21:59.084Z,-0.04
2022-12-19T22:24:27.891Z,-0.20
2022-12-19T22:26:56.513Z,-0.06
2022-12-19T22:29:25.627Z,-0.02
2022-12-19T22:31:54.360Z,-0.23
2022-12-19T22:34:23.505Z,0.02
2022-12-19T22:36:52.127Z,-0.41
2022-12-19T22:39:23.625Z,-0.08
2022-12-19T22:41:52.632Z,-0.42
2022-12-19T22:44:23.988Z,-0.32
2022-12-19T22:46:53.759Z,-0.03
2022-12-19T22:49:22.479Z,-0.19
2022-12-19T22:51:51.287Z,-0.45
2022-12-19T22:54:19.874Z,-0.07
2022-12-19T22:56:52.544Z,-0.27
2022-12-19T22:59:21.239Z,-0.34
2022-12-19T23:01:49.977Z,-0.12
2022-12-19T23:04:19.352Z,-0.31
2022-12-19T23:06:48.201Z,-0.57
2022-12-19T23:09:18.995Z,-0.45
2022-12-19T23:11:50.355Z,-0.39
2022-12-19T23:14:20.846Z,-0.49
2022-12-19T23:16:50.072Z,-0.36
2022-12-19T23:19:19.556Z,-1.03
2022-12-19T23:21:48.519Z,-0.41
2022-12-19T23:24:17.341Z,-0.71
2022-12-19T23:26:46.233Z,-0.61
2022-12-19T23:29:16.960Z,-0.50
2022-12-19T23:31:48.077Z,-0.70
2022-12-19T23:34:17.870Z,-0.51
2022-12-19T23:39:36.056Z,-0.75
2022-12-19T23:42:04.908Z,-0.59
2022-12-19T23:44:33.907Z,-0.69
2022-12-19T23:47:04.048Z,-0.59
2022-12-19T23:49:34.459Z,-0.94
2022-12-19T23:52:03.178Z,-0.64
2022-12-19T23:54:32.247Z,-0.66
2022-12-19T23:57:01.184Z,-0.55
2022-12-19T23:59:29.926Z,-0.63
